createdAt,value
2018-07-21T00:00:11.340Z,7.00
2018-07-21T00:01:11.337Z,7.20
2018-07-21T00:02:11.337Z,6.50
2018-07-21T00:03:11.334Z,6.70
2018-07-21T00:04:11.339Z,6.80
2018-07-21T00:05:11.334Z,8.70
2018-07-21T00:06:11.332Z,7.20
2018-07-21T00:07:11.333Z,8.70
2018-07-21T00:08:11.328Z,7.00
2018-07-21T00:09:11.329Z,6.80
2018-07-21T00:10:11.331Z,7.20
2018-07-21T00:11:11.322Z,7.90
2018-07-21T00:12:11.319Z,9.20
2018-07-21T00:13:11.315Z,7.30
2018-07-21T00:14:11.369Z,6.90
2018-07-21T00:15:11.315Z,10.50
2018-07-21T00:16:11.311Z,8.40
2018-07-21T00:17:11.309Z,7.60
2018-07-21T00:18:11.314Z,7.20
2018-07-21T00:19:11.309Z,7.60
2018-07-21T00:20:11.304Z,6.50
2018-07-21T00:21:11.301Z,9.00
2018-07-21T00:22:11.302Z,8.30
2018-07-21T00:23:11.306Z,7.30
2018-07-21T00:24:11.301Z,10.50
2018-07-21T00:25:11.301Z,6.80
2018-07-21T00:26:11.293Z,6.80
2018-07-21T00:27:11.297Z,6.80
2018-07-21T00:28:11.291Z,7.00
2018-07-21T00:29:11.287Z,10.00
2018-07-21T00:30:11.288Z,9.40
2018-07-21T00:31:11.283Z,7.10
2018-07-21T00:32:11.280Z,6.90
2018-07-21T00:33:11.278Z,10.20
2018-07-21T00:34:11.281Z,8.80
2018-07-21T00:35:11.281Z,9.00
2018-07-21T00:36:11.276Z,9.20
2018-07-21T00:37:11.275Z,6.80
2018-07-21T00:38:11.272Z,8.10
2018-07-21T00:39:11.272Z,12.10
2018-07-21T00:40:11.267Z,6.80
2018-07-21T00:41:11.267Z,7.00
2018-07-21T00:42:11.267Z,7.10
2018-07-21T00:43:11.271Z,7.10
2018-07-21T00:44:11.325Z,6.90
2018-07-21T00:45:11.257Z,7.70
2018-07-21T00:46:11.372Z,7.80
2018-07-21T00:47:11.254Z,6.40
2018-07-21T00:48:11.334Z,7.00
2018-07-21T00:49:11.252Z,6.90
2018-07-21T00:50:11.251Z,7.20
2018-07-21T00:51:11.243Z,7.80
2018-07-21T00:52:11.240Z,6.50
2018-07-21T00:53:11.243Z,7.40
2018-07-21T00:54:11.239Z,5.80
2018-07-21T00:55:11.239Z,7.60
2018-07-21T00:56:11.233Z,6.90
2018-07-21T00:57:11.267Z,7.00
2018-07-21T00:58:11.234Z,7.30
2018-07-21T00:59:11.227Z,6.80
2018-07-21T01:00:11.224Z,6.60
2018-07-21T01:01:11.222Z,9.00
2018-07-21T01:02:11.227Z,6.50
2018-07-21T01:03:11.219Z,7.50
2018-07-21T01:04:11.215Z,5.80
2018-07-21T01:05:11.215Z,7.20
2018-07-21T01:06:11.219Z,7.60
2018-07-21T01:07:11.219Z,7.50
2018-07-21T01:08:11.212Z,6.30
2018-07-21T01:09:11.207Z,7.00
2018-07-21T01:10:11.207Z,6.90
2018-07-21T01:11:11.219Z,7.10
2018-07-21T01:12:11.205Z,6.70
2018-07-21T01:13:11.198Z,8.90
2018-07-21T01:14:11.195Z,7.00
2018-07-21T01:15:11.195Z,7.60
2018-07-21T01:16:11.191Z,8.00
2018-07-21T01:17:11.190Z,8.80
2018-07-21T01:18:11.187Z,6.90
2018-07-21T01:19:11.186Z,8.50
2018-07-21T01:20:11.188Z,6.80
2018-07-21T01:21:11.179Z,5.80
2018-07-21T01:22:11.180Z,8.90
2018-07-21T01:23:11.175Z,6.50
2018-07-21T01:24:11.178Z,6.30
2018-07-21T01:25:11.179Z,6.30
2018-07-21T01:26:11.170Z,5.90
2018-07-21T01:27:11.172Z,6.20
2018-07-21T01:28:11.172Z,6.00
2018-07-21T01:29:11.165Z,6.40
2018-07-21T01:30:11.162Z,5.90
2018-07-21T01:31:11.162Z,8.40
2018-07-21T01:32:11.160Z,7.80
2018-07-21T01:33:11.156Z,7.40
2018-07-21T01:34:11.156Z,5.40
2018-07-21T01:35:11.153Z,6.80
2018-07-21T01:36:11.148Z,6.30
2018-07-21T01:37:11.146Z,6.20
2018-07-21T01:38:11.143Z,5.60
2018-07-21T01:39:11.148Z,6.70
2018-07-21T01:40:11.140Z,6.80
2018-07-21T01:41:11.140Z,6.90
2018-07-21T01:42:11.136Z,6.90
2018-07-21T01:43:11.138Z,6.70
2018-07-21T01:44:11.132Z,5.90
2018-07-21T01:45:11.130Z,6.00
2018-07-21T01:46:11.128Z,7.00
2018-07-21T01:47:11.126Z,8.50
2018-07-21T01:48:11.128Z,5.80
2018-07-21T01:49:11.122Z,7.40
2018-07-21T01:50:11.125Z,5.90
2018-07-21T01:51:11.117Z,6.60
2018-07-21T01:52:11.119Z,6.40
2018-07-21T01:53:11.112Z,7.80
2018-07-21T01:54:11.112Z,7.80
2018-07-21T01:55:11.108Z,6.60
2018-07-21T01:56:11.106Z,6.90
2018-07-21T01:57:11.111Z,6.30
2018-07-21T01:58:11.103Z,6.70
2018-07-21T01:59:11.101Z,6.00
2018-07-21T02:00:11.097Z,6.20
2018-07-21T02:01:11.096Z,7.90
2018-07-21T02:02:11.095Z,6.60
2018-07-21T02:03:11.099Z,6.00
2018-07-21T02:04:11.089Z,6.30
2018-07-21T02:05:11.089Z,6.50
2018-07-21T02:06:11.088Z,6.00
2018-07-21T02:07:11.088Z,7.50
2018-07-21T02:08:11.082Z,6.00
2018-07-21T02:09:11.083Z,6.20
2018-07-21T02:10:11.078Z,7.80
2018-07-21T02:11:11.077Z,6.90
2018-07-21T02:12:11.080Z,5.70
2018-07-21T02:13:11.072Z,8.00
2018-07-21T02:14:11.067Z,6.80
2018-07-21T02:15:11.068Z,8.00
2018-07-21T02:16:11.063Z,6.20
2018-07-21T02:17:11.065Z,5.90
2018-07-21T02:18:11.061Z,6.90
2018-07-21T02:19:11.058Z,7.50
2018-07-21T02:20:11.054Z,7.30
2018-07-21T02:21:11.052Z,7.40
2018-07-21T02:22:11.052Z,7.30
2018-07-21T02:23:11.047Z,5.00
2018-07-21T02:24:11.046Z,7.00
2018-07-21T02:25:11.042Z,5.60
2018-07-21T02:26:11.041Z,7.70
2018-07-21T02:27:11.038Z,6.40
2018-07-21T02:28:11.039Z,6.10
2018-07-21T02:29:11.032Z,6.10
2018-07-21T02:30:11.033Z,8.50
2018-07-21T02:31:11.031Z,6.50
2018-07-21T02:32:11.099Z,5.90
2018-07-21T02:33:11.025Z,5.60
2018-07-21T02:34:11.021Z,6.00
2018-07-21T02:35:11.020Z,6.60
2018-07-21T02:36:11.016Z,7.60
2018-07-21T02:37:11.019Z,7.40
2018-07-21T02:38:11.012Z,5.40
2018-07-21T02:39:11.010Z,6.50
2018-07-21T02:40:11.013Z,5.80
2018-07-21T02:41:11.008Z,7.10
2018-07-21T02:42:11.006Z,5.70
2018-07-21T02:43:11.004Z,6.60
2018-07-21T02:44:10.997Z,5.00
2018-07-21T02:45:10.994Z,5.60
2018-07-21T02:46:10.997Z,5.20
2018-07-21T02:47:10.995Z,6.10
2018-07-21T02:48:10.989Z,5.50
2018-07-21T02:49:10.991Z,5.50
2018-07-21T02:50:10.990Z,6.30
2018-07-21T02:51:10.982Z,4.90
2018-07-21T02:52:10.980Z,5.40
2018-07-21T02:53:10.977Z,5.20
2018-07-21T02:54:10.977Z,7.10
2018-07-21T02:55:10.980Z,6.60
2018-07-21T02:56:10.971Z,4.50
2018-07-21T02:57:10.971Z,6.20
2018-07-21T02:58:10.967Z,5.50
2018-07-21T02:59:10.970Z,5.80
2018-07-21T03:00:10.962Z,4.20
2018-07-21T03:01:10.964Z,5.60
2018-07-21T03:02:10.965Z,4.50
2018-07-21T03:03:10.955Z,5.70
2018-07-21T03:04:10.954Z,5.10
2018-07-21T03:05:10.954Z,4.60
2018-07-21T03:06:10.948Z,5.20
2018-07-21T03:07:10.946Z,5.10
2018-07-21T03:08:10.950Z,5.90
2018-07-21T03:09:10.941Z,4.40
2018-07-21T03:10:10.942Z,5.10
2018-07-21T03:11:10.938Z,7.30
2018-07-21T03:12:10.933Z,4.70
2018-07-21T03:13:10.934Z,6.90
2018-07-21T03:14:10.935Z,7.20
2018-07-21T03:15:10.927Z,4.40
2018-07-21T03:16:10.928Z,4.10
2018-07-21T03:17:10.921Z,4.50
2018-07-21T03:18:10.922Z,3.90
2018-07-21T03:19:10.917Z,5.70
2018-07-21T03:20:10.915Z,4.70
2018-07-21T03:21:10.914Z,4.50
2018-07-21T03:22:10.910Z,4.10
2018-07-21T03:23:10.948Z,4.40
2018-07-21T03:24:10.905Z,4.60
2018-07-21T03:25:10.903Z,4.00
2018-07-21T03:26:10.900Z,6.70
2018-07-21T03:27:10.904Z,4.80
2018-07-21T03:28:10.902Z,4.70
2018-07-21T03:29:10.892Z,4.30
2018-07-21T03:30:10.894Z,5.60
2018-07-21T03:31:10.895Z,5.60
2018-07-21T03:32:10.903Z,4.30
2018-07-21T03:33:10.883Z,6.30
2018-07-21T03:34:10.886Z,6.00
2018-07-21T03:35:10.882Z,4.70
2018-07-21T03:36:10.879Z,4.90
2018-07-21T03:37:10.875Z,4.00
2018-07-21T03:38:10.877Z,6.10
2018-07-21T03:39:10.873Z,4.80
2018-07-21T03:40:10.866Z,4.30
2018-07-21T03:41:10.873Z,5.20
2018-07-21T03:42:10.869Z,5.90
2018-07-21T03:43:10.859Z,6.10
2018-07-21T03:44:10.858Z,4.50
2018-07-21T03:45:10.857Z,4.30
2018-07-21T03:46:10.855Z,4.20
2018-07-21T03:47:10.850Z,6.00
2018-07-21T03:48:10.846Z,5.40
2018-07-21T03:49:10.847Z,4.70
2018-07-21T03:50:10.848Z,6.40
2018-07-21T03:51:10.845Z,4.50
2018-07-21T03:52:10.841Z,4.30
2018-07-21T03:53:10.835Z,4.60
2018-07-21T03:54:10.836Z,4.90
2018-07-21T03:55:10.875Z,6.90
2018-07-21T03:56:10.831Z,5.30
2018-07-21T03:57:10.831Z,4.80
2018-07-21T03:58:10.825Z,6.60
2018-07-21T03:59:10.822Z,4.40
2018-07-21T04:00:10.818Z,4.60
2018-07-21T04:01:10.822Z,4.70
2018-07-21T04:02:10.819Z,6.00
2018-07-21T04:03:10.820Z,6.20
2018-07-21T04:04:10.812Z,5.80
2018-07-21T04:05:10.811Z,7.00
2018-07-21T04:06:10.807Z,5.60
2018-07-21T04:07:10.803Z,4.90
2018-07-21T04:08:10.802Z,5.50
2018-07-21T04:09:10.797Z,5.00
2018-07-21T04:10:10.794Z,5.50
2018-07-21T04:11:10.792Z,5.00
2018-07-21T04:12:10.790Z,6.70
2018-07-21T04:13:10.788Z,6.70
2018-07-21T04:14:10.793Z,6.60
2018-07-21T04:15:10.784Z,7.00
2018-07-21T04:16:10.780Z,4.70
2018-07-21T04:17:10.780Z,5.60
2018-07-21T04:18:10.778Z,6.50
2018-07-21T04:19:10.786Z,7.30
2018-07-21T04:20:10.770Z,7.30
2018-07-21T04:21:10.771Z,5.60
2018-07-21T04:22:10.767Z,6.60
2018-07-21T04:23:10.769Z,6.70
2018-07-21T04:24:10.776Z,6.00
2018-07-21T04:25:10.764Z,5.50
2018-07-21T04:26:10.759Z,6.50
2018-07-21T04:27:10.756Z,7.00
2018-07-21T04:28:10.759Z,5.60
2018-07-21T04:29:10.749Z,6.40
2018-07-21T04:30:10.753Z,5.40
2018-07-21T04:31:10.744Z,5.30
2018-07-21T04:32:10.743Z,6.80
2018-07-21T04:33:10.742Z,5.50
2018-07-21T04:34:10.741Z,6.70
2018-07-21T04:35:10.734Z,6.20
2018-07-21T04:36:10.734Z,5.10
2018-07-21T04:37:10.731Z,7.30
2018-07-21T04:38:10.732Z,6.90
2018-07-21T04:39:10.733Z,9.40
2018-07-21T04:40:10.731Z,6.40
2018-07-21T04:41:10.722Z,5.70
2018-07-21T04:42:10.720Z,5.30
2018-07-21T04:43:10.718Z,5.80
2018-07-21T04:44:10.713Z,7.80
2018-07-21T04:45:10.711Z,6.90
2018-07-21T04:46:10.713Z,6.70
2018-07-21T04:47:10.708Z,6.00
2018-07-21T04:48:10.705Z,7.50
2018-07-21T04:49:10.701Z,6.10
2018-07-21T04:50:10.698Z,5.90
2018-07-21T04:51:10.696Z,5.70
2018-07-21T04:52:10.694Z,7.20
2018-07-21T04:53:10.690Z,7.10
2018-07-21T04:54:10.690Z,5.20
2018-07-21T04:55:10.690Z,6.20
2018-07-21T04:56:10.685Z,6.80
2018-07-21T04:57:10.684Z,6.30
2018-07-21T04:58:10.683Z,6.70
2018-07-21T04:59:10.683Z,6.30
2018-07-21T05:00:10.680Z,5.80
2018-07-21T05:01:10.672Z,6.00
2018-07-21T05:02:10.670Z,7.30
2018-07-21T05:03:10.671Z,7.90
2018-07-21T05:04:10.665Z,7.30
2018-07-21T05:05:10.668Z,5.40
2018-07-21T05:06:10.661Z,7.90
2018-07-21T05:07:10.669Z,6.20
2018-07-21T05:08:10.660Z,8.10
2018-07-21T05:09:10.659Z,6.20
2018-07-21T05:10:10.661Z,7.00
2018-07-21T05:11:10.652Z,5.50
2018-07-21T05:12:10.646Z,6.70
2018-07-21T05:13:10.650Z,7.40
2018-07-21T05:14:10.646Z,5.90
2018-07-21T05:15:10.640Z,7.60
2018-07-21T05:16:10.637Z,7.40
2018-07-21T05:17:10.635Z,6.00
2018-07-21T05:18:10.636Z,6.00
2018-07-21T05:19:10.630Z,6.30
2018-07-21T05:20:10.678Z,7.90
2018-07-21T05:21:10.626Z,6.20
2018-07-21T05:22:10.628Z,6.20
2018-07-21T05:23:10.626Z,7.10
2018-07-21T05:24:10.618Z,7.00
2018-07-21T05:25:10.621Z,7.40
2018-07-21T05:26:10.621Z,6.90
2018-07-21T05:27:10.616Z,7.40
2018-07-21T05:28:10.611Z,6.50
2018-07-21T05:29:10.608Z,7.30
2018-07-21T05:30:10.606Z,7.20
2018-07-21T05:31:10.608Z,7.10
2018-07-21T05:32:10.600Z,7.50
2018-07-21T05:33:10.599Z,6.60
2018-07-21T05:34:10.594Z,6.40
2018-07-21T05:35:10.601Z,8.10
2018-07-21T05:36:10.592Z,6.90
2018-07-21T05:37:10.589Z,6.50
2018-07-21T05:38:10.586Z,6.70
2018-07-21T05:39:10.603Z,7.30
2018-07-21T05:40:10.581Z,7.10
2018-07-21T05:41:10.584Z,7.00
2018-07-21T05:42:10.582Z,8.80
2018-07-21T05:43:10.581Z,7.30
2018-07-21T05:44:10.571Z,8.20
2018-07-21T05:45:10.629Z,7.30
2018-07-21T05:46:10.569Z,10.00
2018-07-21T05:47:10.566Z,9.00
2018-07-21T05:48:10.563Z,8.60
2018-07-21T05:49:10.560Z,7.30
2018-07-21T05:50:10.556Z,7.20
2018-07-21T05:51:10.557Z,7.60
2018-07-21T05:52:10.560Z,7.60
2018-07-21T05:53:10.579Z,8.70
2018-07-21T05:54:10.547Z,10.00
2018-07-21T05:55:10.546Z,8.10
2018-07-21T05:56:10.548Z,8.40
2018-07-21T05:57:10.541Z,7.30
2018-07-21T05:58:10.545Z,8.30
2018-07-21T05:59:10.537Z,9.00
2018-07-21T06:00:10.543Z,9.80
2018-07-21T06:01:10.540Z,6.80
2018-07-21T06:02:10.529Z,7.30
2018-07-21T06:03:10.655Z,7.70
2018-07-21T06:04:10.528Z,6.90
2018-07-21T06:05:10.524Z,7.70
2018-07-21T06:06:10.524Z,7.00
2018-07-21T06:07:10.530Z,8.30
2018-07-21T06:08:10.518Z,7.90
2018-07-21T06:09:10.515Z,7.60
2018-07-21T06:10:10.518Z,7.20
2018-07-21T06:11:10.560Z,7.60
2018-07-21T06:12:10.509Z,10.90
2018-07-21T06:13:10.512Z,7.80
2018-07-21T06:14:10.513Z,8.40
2018-07-21T06:15:10.507Z,6.70
2018-07-21T06:16:10.503Z,7.10
2018-07-21T06:17:10.501Z,7.00
2018-07-21T06:18:10.502Z,7.40
2018-07-21T06:19:10.497Z,9.40
2018-07-21T06:20:10.495Z,6.50
2018-07-21T06:21:10.494Z,6.90
2018-07-21T06:22:10.493Z,7.60
2018-07-21T06:23:10.491Z,6.80
2018-07-21T06:24:10.490Z,6.90
2018-07-21T06:25:10.496Z,6.60
2018-07-21T06:26:10.492Z,6.80
2018-07-21T06:27:10.487Z,6.20
2018-07-21T06:28:10.513Z,6.80
2018-07-21T06:29:10.482Z,7.80
2018-07-21T06:30:10.494Z,7.50
2018-07-21T06:31:10.479Z,7.70
2018-07-21T06:32:10.476Z,7.70
2018-07-21T06:33:10.477Z,5.30
2018-07-21T06:34:10.474Z,5.30
2018-07-21T06:35:10.473Z,4.80
2018-07-21T06:36:10.474Z,7.30
2018-07-21T06:37:10.475Z,5.10
2018-07-21T06:38:10.471Z,5.00
2018-07-21T06:39:10.470Z,6.10
2018-07-21T06:40:10.471Z,6.10
2018-07-21T06:41:10.478Z,5.90
2018-07-21T06:42:10.470Z,5.20
2018-07-21T06:43:10.534Z,5.10
2018-07-21T06:44:10.471Z,4.20
2018-07-21T06:45:10.466Z,5.30
2018-07-21T06:46:10.471Z,4.70
2018-07-21T06:47:10.465Z,5.50
2018-07-21T06:48:10.464Z,4.40
2018-07-21T06:49:10.463Z,4.10
2018-07-21T06:50:10.467Z,4.50
2018-07-21T06:51:10.465Z,3.70
2018-07-21T06:52:10.466Z,3.70
2018-07-21T06:53:10.459Z,4.50
2018-07-21T06:54:10.463Z,5.60
2018-07-21T06:55:10.465Z,4.40
2018-07-21T06:56:10.457Z,3.50
2018-07-21T06:57:10.459Z,3.90
2018-07-21T06:58:10.462Z,3.50
2018-07-21T06:59:10.476Z,5.20
2018-07-21T07:00:10.456Z,3.30
2018-07-21T07:01:10.460Z,4.40
2018-07-21T07:02:10.454Z,4.10
2018-07-21T07:03:10.452Z,4.60
2018-07-21T07:04:10.454Z,3.80
2018-07-21T07:05:10.451Z,3.90
2018-07-21T07:06:10.449Z,3.40
2018-07-21T07:07:10.449Z,4.00
2018-07-21T07:08:10.449Z,3.80
2018-07-21T07:09:10.453Z,3.60
2018-07-21T07:10:10.452Z,3.90
2018-07-21T07:11:10.450Z,4.70
2018-07-21T07:12:10.444Z,4.40
2018-07-21T07:13:10.442Z,3.20
2018-07-21T07:14:10.447Z,3.20
2018-07-21T07:15:10.441Z,3.60
2018-07-21T07:16:10.441Z,4.60
2018-07-21T07:17:10.439Z,4.10
2018-07-21T07:18:10.437Z,3.00
2018-07-21T07:19:10.437Z,3.80
2018-07-21T07:20:10.435Z,3.30
2018-07-21T07:21:10.433Z,2.70
2018-07-21T07:22:10.439Z,3.10
2018-07-21T07:23:10.440Z,5.10
2018-07-21T07:24:10.429Z,2.70
2018-07-21T07:25:10.429Z,4.00
2018-07-21T07:26:10.430Z,3.00
2018-07-21T07:27:10.431Z,3.20
2018-07-21T07:28:10.427Z,3.10
2018-07-21T07:29:10.428Z,3.10
2018-07-21T07:30:10.428Z,2.90
2018-07-21T07:31:10.429Z,3.50
2018-07-21T07:32:10.423Z,3.00
2018-07-21T07:33:10.423Z,3.50
2018-07-21T07:34:10.427Z,3.10
2018-07-21T07:35:10.442Z,4.30
2018-07-21T07:36:10.435Z,3.10
2018-07-21T07:37:10.419Z,3.60
2018-07-21T07:38:10.420Z,4.40
2018-07-21T07:39:10.418Z,3.00
2018-07-21T07:40:10.420Z,4.70
2018-07-21T07:41:10.416Z,6.40
2018-07-21T07:42:10.421Z,6.50
2018-07-21T07:43:10.415Z,6.00
2018-07-21T07:44:10.412Z,7.70
2018-07-21T07:45:10.416Z,4.80
2018-07-21T07:46:10.417Z,5.60
2018-07-21T07:47:10.414Z,5.20
2018-07-21T07:48:10.410Z,7.90
2018-07-21T07:49:10.415Z,8.10
2018-07-21T07:50:10.410Z,5.60
2018-07-21T07:51:10.409Z,7.40
2018-07-21T07:52:10.412Z,9.90
2018-07-21T07:53:10.406Z,6.10
2018-07-21T07:54:10.404Z,4.90
2018-07-21T07:55:10.409Z,5.10
2018-07-21T07:56:10.404Z,6.30
2018-07-21T07:57:10.402Z,6.20
2018-07-21T07:58:10.402Z,8.90
2018-07-21T07:59:10.409Z,7.30
2018-07-21T08:00:10.405Z,6.70
2018-07-21T08:01:10.447Z,5.20
2018-07-21T08:02:10.401Z,4.60
2018-07-21T08:03:10.397Z,5.50
2018-07-21T08:04:10.394Z,5.00
2018-07-21T08:05:10.400Z,5.50
2018-07-21T08:06:10.400Z,4.70
2018-07-21T08:07:10.394Z,5.00
2018-07-21T08:08:10.391Z,5.30
2018-07-21T08:09:10.391Z,5.40
2018-07-21T08:10:10.389Z,4.90
2018-07-21T08:11:10.386Z,5.50
2018-07-21T08:12:10.385Z,4.90
2018-07-21T08:13:10.388Z,4.90
2018-07-21T08:14:10.398Z,5.40
2018-07-21T08:15:10.382Z,5.00
2018-07-21T08:16:10.382Z,4.10
2018-07-21T08:17:10.385Z,4.90
2018-07-21T08:18:10.392Z,5.10
2018-07-21T08:19:10.379Z,4.60
2018-07-21T08:20:10.374Z,7.70
2018-07-21T08:21:10.375Z,5.00
2018-07-21T08:22:10.382Z,4.80
2018-07-21T08:23:10.372Z,4.80
2018-07-21T08:24:10.370Z,3.90
2018-07-21T08:25:10.371Z,4.60
2018-07-21T08:26:10.368Z,3.80
2018-07-21T08:27:10.367Z,4.00
2018-07-21T08:28:10.369Z,6.30
2018-07-21T08:29:10.442Z,7.30
2018-07-21T08:30:10.363Z,5.00
2018-07-21T08:31:10.367Z,3.60
2018-07-21T08:32:10.362Z,5.60
2018-07-21T08:33:10.361Z,4.20
2018-07-21T08:34:10.359Z,4.80
2018-07-21T08:35:10.364Z,6.10
2018-07-21T08:36:10.359Z,3.90
2018-07-21T08:37:10.359Z,4.60
2018-07-21T08:38:10.407Z,4.30
2018-07-21T08:39:10.360Z,4.60
2018-07-21T08:40:10.351Z,4.30
2018-07-21T08:41:10.453Z,3.70
2018-07-21T08:42:10.351Z,7.10
2018-07-21T08:43:10.353Z,4.20
2018-07-21T08:44:10.350Z,3.60
2018-07-21T08:45:10.356Z,4.60
2018-07-21T08:46:10.349Z,4.70
2018-07-21T08:47:10.348Z,4.60
2018-07-21T08:48:10.347Z,5.30
2018-07-21T08:49:10.349Z,3.90
2018-07-21T08:50:10.346Z,5.40
2018-07-21T08:51:10.346Z,4.20
2018-07-21T08:52:10.345Z,4.40
2018-07-21T08:53:10.344Z,4.20
2018-07-21T08:54:10.350Z,3.80
2018-07-21T08:55:10.342Z,4.20
2018-07-21T08:56:10.424Z,4.30
2018-07-21T08:57:10.341Z,4.20
2018-07-21T08:58:10.344Z,5.10
2018-07-21T08:59:10.346Z,7.40
2018-07-21T09:00:10.339Z,5.80
2018-07-21T09:01:10.341Z,6.40
2018-07-21T09:02:10.339Z,4.80
2018-07-21T09:03:10.339Z,5.20
2018-07-21T09:04:10.337Z,4.50
2018-07-21T09:05:10.344Z,4.60
2018-07-21T09:06:10.337Z,5.10
2018-07-21T09:07:10.337Z,5.90
2018-07-21T09:08:10.341Z,5.90
2018-07-21T09:09:10.337Z,4.60
2018-07-21T09:10:10.337Z,5.50
2018-07-21T09:11:10.340Z,6.30
2018-07-21T09:12:10.342Z,4.00
2018-07-21T09:13:10.431Z,6.30
2018-07-21T09:14:10.343Z,4.40
2018-07-21T09:15:10.335Z,4.80
2018-07-21T09:16:10.335Z,4.40
2018-07-21T09:17:10.341Z,5.30
2018-07-21T09:18:10.336Z,6.20
2018-07-21T09:19:10.338Z,4.40
2018-07-21T09:20:10.336Z,4.10
2018-07-21T09:21:10.341Z,4.90
2018-07-21T09:22:10.336Z,5.40
2018-07-21T09:23:10.333Z,4.20
2018-07-21T09:24:10.331Z,4.00
2018-07-21T09:25:10.339Z,3.90
2018-07-21T09:26:10.334Z,4.20
2018-07-21T09:27:10.340Z,4.60
2018-07-21T09:28:10.364Z,4.50
2018-07-21T09:29:10.339Z,4.20
2018-07-21T09:30:10.336Z,6.30
2018-07-21T09:31:10.336Z,6.00
2018-07-21T09:32:10.338Z,7.30
2018-07-21T09:33:10.334Z,5.20
2018-07-21T09:34:10.371Z,6.90
2018-07-21T09:35:10.340Z,6.10
2018-07-21T09:36:10.338Z,7.00
2018-07-21T09:37:10.332Z,5.90
2018-07-21T09:38:10.334Z,5.80
2018-07-21T09:39:10.333Z,6.00
2018-07-21T09:40:10.374Z,6.80
2018-07-21T09:41:10.334Z,5.30
2018-07-21T09:42:10.337Z,7.00
2018-07-21T09:43:10.340Z,4.90
2018-07-21T09:44:10.332Z,5.10
2018-07-21T09:45:10.338Z,4.70
2018-07-21T09:46:10.333Z,5.90
2018-07-21T09:47:10.338Z,6.40
2018-07-21T09:48:10.330Z,5.30
2018-07-21T09:49:10.344Z,6.40
2018-07-21T09:50:10.333Z,5.20
2018-07-21T09:51:10.332Z,5.20
2018-07-21T09:52:10.332Z,5.30
2018-07-21T09:53:10.336Z,4.70
2018-07-21T09:54:10.333Z,4.70
2018-07-21T09:55:10.332Z,5.40
2018-07-21T09:56:10.329Z,5.60
2018-07-21T09:57:10.332Z,4.40
2018-07-21T09:58:10.331Z,6.20
2018-07-21T09:59:10.333Z,5.10
2018-07-21T10:00:10.332Z,6.40
2018-07-21T10:01:10.331Z,4.90
2018-07-21T10:02:10.332Z,5.50
2018-07-21T10:03:10.336Z,5.30
2018-07-21T10:04:10.333Z,6.10
2018-07-21T10:05:10.332Z,5.30
2018-07-21T10:06:10.331Z,5.70
2018-07-21T10:07:10.335Z,5.30
2018-07-21T10:08:10.335Z,5.80
2018-07-21T10:09:10.329Z,5.20
2018-07-21T10:10:10.330Z,5.60
2018-07-21T10:11:10.338Z,5.90
2018-07-21T10:12:10.334Z,6.90
2018-07-21T10:13:10.333Z,4.20
2018-07-21T10:14:10.336Z,5.10
2018-07-21T10:15:10.332Z,5.60
2018-07-21T10:16:10.336Z,4.10
2018-07-21T10:17:10.334Z,4.50
2018-07-21T10:18:10.336Z,4.70
2018-07-21T10:19:10.332Z,4.80
2018-07-21T10:20:10.332Z,6.10
2018-07-21T10:21:10.333Z,6.90
2018-07-21T10:22:10.396Z,5.20
2018-07-21T10:23:10.335Z,4.10
2018-07-21T10:24:10.338Z,4.70
2018-07-21T10:25:10.337Z,4.80
2018-07-21T10:26:10.340Z,4.90
2018-07-21T10:27:10.336Z,4.30
2018-07-21T10:28:10.350Z,5.10
2018-07-21T10:29:10.339Z,6.20
2018-07-21T10:30:10.385Z,6.10
2018-07-21T10:31:10.341Z,4.30
2018-07-21T10:32:10.335Z,4.20
2018-07-21T10:33:10.351Z,5.40
2018-07-21T10:34:10.342Z,4.90
2018-07-21T10:35:10.338Z,5.10
2018-07-21T10:36:10.337Z,4.70
2018-07-21T10:37:10.339Z,6.40
2018-07-21T10:38:10.412Z,4.80
2018-07-21T10:39:10.347Z,4.20
2018-07-21T10:40:10.341Z,4.80
2018-07-21T10:41:10.343Z,6.10
2018-07-21T10:42:10.344Z,6.70
2018-07-21T10:43:10.349Z,6.10
2018-07-21T10:44:10.341Z,6.10
2018-07-21T10:45:10.348Z,6.00
2018-07-21T10:46:10.343Z,4.90
2018-07-21T10:47:10.347Z,7.90
2018-07-21T10:48:10.346Z,4.30
2018-07-21T10:49:10.353Z,4.80
2018-07-21T10:50:10.346Z,4.30
2018-07-21T10:51:10.347Z,4.40
2018-07-21T10:52:10.347Z,4.40
2018-07-21T10:53:10.348Z,6.20
2018-07-21T10:54:10.349Z,4.50
2018-07-21T10:55:10.351Z,5.70
2018-07-21T10:56:10.351Z,4.40
2018-07-21T10:57:10.351Z,4.80
2018-07-21T10:58:10.357Z,4.50
2018-07-21T10:59:10.355Z,4.40
2018-07-21T11:00:10.358Z,5.00
2018-07-21T11:01:10.353Z,4.90
2018-07-21T11:02:10.357Z,4.60
2018-07-21T11:03:10.354Z,6.30
2018-07-21T11:04:10.357Z,4.80
2018-07-21T11:05:10.362Z,4.30
2018-07-21T11:06:10.355Z,4.10
2018-07-21T11:07:10.357Z,6.10
2018-07-21T11:08:10.378Z,4.30
2018-07-21T11:09:10.358Z,4.20
2018-07-21T11:10:10.357Z,4.60
2018-07-21T11:11:10.360Z,3.70
2018-07-21T11:12:10.362Z,4.20
2018-07-21T11:13:10.357Z,4.00
2018-07-21T11:14:10.358Z,5.90
2018-07-21T11:15:10.369Z,3.90
2018-07-21T11:16:10.369Z,5.40
2018-07-21T11:17:10.359Z,5.30
2018-07-21T11:18:10.359Z,3.60
2018-07-21T11:19:10.360Z,3.70
2018-07-21T11:20:10.366Z,4.20
2018-07-21T11:21:10.360Z,4.10
2018-07-21T11:22:10.369Z,3.80
2018-07-21T11:23:10.365Z,4.50
2018-07-21T11:24:10.363Z,3.60
2018-07-21T11:25:10.364Z,3.70
2018-07-21T11:26:10.365Z,3.90
2018-07-21T11:27:10.367Z,5.00
2018-07-21T11:28:10.365Z,3.80
2018-07-21T11:29:10.371Z,5.60
2018-07-21T11:30:10.370Z,3.80
2018-07-21T11:31:10.366Z,3.80
2018-07-21T11:32:10.371Z,3.50
2018-07-21T11:33:10.368Z,8.20
2018-07-21T11:34:10.373Z,4.80
2018-07-21T11:35:10.443Z,4.00
2018-07-21T11:36:10.559Z,6.90
2018-07-21T11:37:10.366Z,4.10
2018-07-21T11:38:10.369Z,4.40
2018-07-21T11:39:10.373Z,4.10
2018-07-21T11:40:10.370Z,7.50
2018-07-21T11:41:10.371Z,4.60
2018-07-21T11:42:10.370Z,5.30
2018-07-21T11:43:10.371Z,4.30
2018-07-21T11:44:10.378Z,4.90
2018-07-21T11:45:10.373Z,4.30
2018-07-21T11:46:10.371Z,4.80
2018-07-21T11:47:10.376Z,6.00
2018-07-21T11:48:10.379Z,4.40
2018-07-21T11:49:10.373Z,6.00
2018-07-21T11:50:10.375Z,4.50
2018-07-21T11:51:10.377Z,5.90
2018-07-21T11:52:10.376Z,4.70
2018-07-21T11:53:10.376Z,5.30
2018-07-21T11:54:10.377Z,4.90
2018-07-21T11:55:10.378Z,4.40
2018-07-21T11:56:10.376Z,4.40
2018-07-21T11:57:10.381Z,4.40
2018-07-21T11:58:10.378Z,4.70
2018-07-21T11:59:10.444Z,3.70
2018-07-21T12:00:10.386Z,3.80
2018-07-21T12:01:10.380Z,3.70
2018-07-21T12:02:10.383Z,3.80
2018-07-21T12:03:10.387Z,3.90
2018-07-21T12:04:10.383Z,3.40
2018-07-21T12:05:10.389Z,4.10
2018-07-21T12:06:10.385Z,5.40
2018-07-21T12:07:10.397Z,4.60
2018-07-21T12:08:10.385Z,3.60
2018-07-21T12:09:10.387Z,5.30
2018-07-21T12:10:10.390Z,4.10
2018-07-21T12:11:10.394Z,4.10
2018-07-21T12:12:10.390Z,5.90
2018-07-21T12:13:10.494Z,3.90
2018-07-21T12:14:10.392Z,5.40
2018-07-21T12:15:10.399Z,4.10
2018-07-21T12:16:10.393Z,7.00
2018-07-21T12:17:10.402Z,3.40
2018-07-21T12:18:10.407Z,3.30
2018-07-21T12:19:10.399Z,4.30
2018-07-21T12:20:10.399Z,3.90
2018-07-21T12:21:10.403Z,3.60
2018-07-21T12:22:10.400Z,3.80
2018-07-21T12:23:10.400Z,3.90
2018-07-21T12:24:10.407Z,3.70
2018-07-21T12:25:10.400Z,4.80
2018-07-21T12:26:10.405Z,3.90
2018-07-21T12:27:10.405Z,3.80
2018-07-21T12:28:10.405Z,4.70
2018-07-21T12:29:10.411Z,6.00
2018-07-21T12:30:10.414Z,3.60
2018-07-21T12:31:10.413Z,5.20
2018-07-21T12:32:10.410Z,4.20
2018-07-21T12:33:10.413Z,4.00
2018-07-21T12:34:10.418Z,4.30
2018-07-21T12:35:10.413Z,3.80
2018-07-21T12:36:10.415Z,4.10
2018-07-21T12:37:10.414Z,4.10
2018-07-21T12:38:10.422Z,4.10
2018-07-21T12:39:10.421Z,4.00
2018-07-21T12:40:10.463Z,4.30
2018-07-21T12:41:10.417Z,4.30
2018-07-21T12:42:10.426Z,4.40
2018-07-21T12:43:10.420Z,6.80
2018-07-21T12:44:10.422Z,4.60
2018-07-21T12:45:10.427Z,4.50
2018-07-21T12:46:10.430Z,4.20
2018-07-21T12:47:10.432Z,3.50
2018-07-21T12:48:10.424Z,3.40
2018-07-21T12:49:10.426Z,8.20
2018-07-21T12:50:10.428Z,7.70
2018-07-21T12:51:10.433Z,6.00
2018-07-21T12:52:10.430Z,7.10
2018-07-21T12:53:10.427Z,11.20
2018-07-21T12:54:10.428Z,10.50
2018-07-21T12:55:10.434Z,6.20
2018-07-21T12:56:10.428Z,7.50
2018-07-21T12:57:10.432Z,4.30
2018-07-21T12:58:10.428Z,5.60
2018-07-21T12:59:10.428Z,6.60
2018-07-21T13:00:10.427Z,7.10
2018-07-21T13:01:10.426Z,5.80
2018-07-21T13:02:10.428Z,9.40
2018-07-21T13:03:10.484Z,8.30
2018-07-21T13:04:10.426Z,5.50
2018-07-21T13:05:10.465Z,5.90
2018-07-21T13:06:10.425Z,4.80
2018-07-21T13:07:10.423Z,4.20
2018-07-21T13:08:10.421Z,5.10
2018-07-21T13:09:10.423Z,4.40
2018-07-21T13:10:10.422Z,4.70
2018-07-21T13:11:10.426Z,4.40
2018-07-21T13:12:10.422Z,3.10
2018-07-21T13:13:10.427Z,3.70
2018-07-21T13:14:10.423Z,4.50
2018-07-21T13:15:10.424Z,5.40
2018-07-21T13:16:10.417Z,4.30
2018-07-21T13:17:10.420Z,3.30
2018-07-21T13:18:10.422Z,3.50